createdAt,value
2018-05-21T00:00:34.856Z,49.00
2018-05-21T00:01:12.203Z,49.00
2018-05-21T00:01:49.791Z,48.90
2018-05-21T00:02:27.107Z,48.90
2018-05-21T00:03:05.171Z,49.00
2018-05-21T00:03:43.406Z,48.80
2018-05-21T00:04:20.742Z,48.80
2018-05-21T00:04:58.170Z,48.90
2018-05-21T00:05:35.576Z,48.80
2018-05-21T00:06:13.064Z,48.90
2018-05-21T00:06:50.528Z,48.90
2018-05-21T00:07:28.800Z,48.90
2018-05-21T00:08:06.242Z,48.90
2018-05-21T00:08:43.636Z,49.00
2018-05-21T00:09:21.109Z,49.00
2018-05-21T00:09:58.362Z,49.00
2018-05-21T00:10:36.342Z,48.90
2018-05-21T00:11:14.260Z,49.00
2018-05-21T00:11:52.451Z,48.90
2018-05-21T00:12:29.677Z,48.90
2018-05-21T00:13:07.018Z,48.90
2018-05-21T00:13:45.186Z,49.00
2018-05-21T00:14:22.560Z,48.90
2018-05-21T00:15:00.758Z,49.00
2018-05-21T00:15:38.035Z,49.00
2018-05-21T00:16:16.127Z,48.80
2018-05-21T00:16:53.489Z,48.80
2018-05-21T00:17:30.997Z,48.80
2018-05-21T00:18:08.421Z,48.90
2018-05-21T00:18:46.557Z,48.80
2018-05-21T00:19:24.546Z,48.80
2018-05-21T00:20:01.796Z,48.70
2018-05-21T00:20:40.227Z,49.00
2018-05-21T00:21:17.418Z,48.90
2018-05-21T00:21:55.593Z,49.00
2018-05-21T00:22:33.794Z,48.90
2018-05-21T00:23:11.197Z,48.90
2018-05-21T00:23:48.468Z,48.80
2018-05-21T00:24:26.534Z,49.00
2018-05-21T00:25:03.998Z,49.00
2018-05-21T00:25:41.372Z,48.90
2018-05-21T00:26:19.473Z,49.00
2018-05-21T00:26:57.557Z,49.00
2018-05-21T00:27:35.793Z,49.00
2018-05-21T00:28:13.854Z,49.00
2018-05-21T00:28:51.223Z,49.00
2018-05-21T00:29:29.341Z,48.90
2018-05-21T00:30:06.781Z,48.90
2018-05-21T00:30:45.025Z,48.90
2018-05-21T00:31:23.088Z,49.00
2018-05-21T00:32:00.558Z,49.00
2018-05-21T00:32:37.828Z,48.90
2018-05-21T00:33:15.257Z,49.20
2018-05-21T00:33:53.327Z,49.00
2018-05-21T00:34:30.599Z,49.00
2018-05-21T00:35:08.673Z,48.90
2018-05-21T00:35:46.062Z,48.90
2018-05-21T00:36:24.236Z,49.00
2018-05-21T00:37:01.489Z,49.00
2018-05-21T00:37:38.955Z,48.90
2018-05-21T00:38:16.350Z,48.90
2018-05-21T00:38:53.674Z,48.80
2018-05-21T00:39:31.017Z,49.00
2018-05-21T00:40:08.508Z,49.00
2018-05-21T00:40:46.711Z,48.90
2018-05-21T00:41:24.939Z,48.70
2018-05-21T00:42:02.314Z,48.70
2018-05-21T00:42:39.608Z,48.90
2018-05-21T00:43:17.060Z,48.80
2018-05-21T00:43:54.487Z,48.90
2018-05-21T00:44:31.880Z,48.80
2018-05-21T00:45:09.355Z,48.90
2018-05-21T00:45:47.598Z,48.90
2018-05-21T00:46:24.824Z,48.90
2018-05-21T00:47:02.217Z,48.90
2018-05-21T00:47:40.317Z,48.90
2018-05-21T00:48:17.534Z,48.90
2018-05-21T00:48:54.816Z,48.80
2018-05-21T00:49:32.255Z,49.00
2018-05-21T00:50:10.421Z,49.00
2018-05-21T00:50:47.659Z,49.00
2018-05-21T00:51:24.982Z,48.90
2018-05-21T00:52:03.070Z,49.00
2018-05-21T00:52:40.373Z,49.00
2018-05-21T00:53:17.759Z,48.90
2018-05-21T00:53:55.698Z,49.00
2018-05-21T00:54:33.946Z,48.90
2018-05-21T00:55:11.262Z,48.90
2018-05-21T00:55:49.378Z,48.90
2018-05-21T00:56:26.574Z,48.90
2018-05-21T00:57:04.025Z,48.90
2018-05-21T00:57:42.111Z,49.00
2018-05-21T00:58:19.581Z,49.00
2018-05-21T00:58:57.794Z,49.00
2018-05-21T00:59:35.837Z,49.00
2018-05-21T01:00:13.869Z,49.20
2018-05-21T01:00:51.117Z,49.00
2018-05-21T01:01:28.510Z,49.00
2018-05-21T01:02:05.839Z,48.90
2018-05-21T01:02:43.301Z,48.90
2018-05-21T01:03:21.690Z,48.80
2018-05-21T01:03:59.779Z,49.00
2018-05-21T01:04:37.925Z,48.90
2018-05-21T01:05:15.250Z,48.90
2018-05-21T01:05:53.338Z,48.90
2018-05-21T01:06:30.716Z,48.90
2018-05-21T01:07:08.904Z,48.90
2018-05-21T01:07:46.337Z,48.90
2018-05-21T01:08:24.574Z,49.00
2018-05-21T01:09:02.835Z,49.00
2018-05-21T01:09:40.304Z,49.00
2018-05-21T01:10:18.572Z,49.00
2018-05-21T01:10:56.647Z,49.00
2018-05-21T01:11:34.650Z,49.00
2018-05-21T01:12:12.615Z,49.00
2018-05-21T01:12:50.070Z,49.00
2018-05-21T01:13:27.631Z,49.00
2018-05-21T01:14:05.793Z,49.00
2018-05-21T01:14:43.111Z,49.00
2018-05-21T01:15:21.168Z,49.10
2018-05-21T01:15:58.363Z,49.00
2018-05-21T01:16:35.702Z,48.90
2018-05-21T01:17:12.962Z,49.00
2018-05-21T01:17:51.191Z,49.10
2018-05-21T01:18:28.439Z,49.10
2018-05-21T01:19:06.535Z,49.00
2018-05-21T01:19:43.896Z,49.00
2018-05-21T01:20:22.109Z,49.00
2018-05-21T01:20:59.433Z,49.00
2018-05-21T01:21:37.686Z,49.10
2018-05-21T01:22:15.778Z,49.10
2018-05-21T01:22:53.138Z,49.00
2018-05-21T01:23:30.632Z,49.00
2018-05-21T01:24:09.549Z,49.00
2018-05-21T01:24:46.871Z,49.00
2018-05-21T01:25:25.117Z,49.10
2018-05-21T01:26:02.361Z,49.00
2018-05-21T01:26:39.714Z,48.90
2018-05-21T01:27:17.007Z,48.90
2018-05-21T01:27:54.349Z,48.80
2018-05-21T01:28:31.818Z,48.70
2018-05-21T01:29:09.870Z,49.00
2018-05-21T01:29:47.350Z,49.00
2018-05-21T01:30:24.807Z,49.00
2018-05-21T01:31:02.382Z,49.10
2018-05-21T01:31:39.702Z,49.10
2018-05-21T01:32:17.810Z,49.00
2018-05-21T01:32:55.244Z,48.90
2018-05-21T01:33:32.693Z,49.00
2018-05-21T01:34:10.732Z,49.10
2018-05-21T01:34:48.759Z,49.00
2018-05-21T01:35:26.076Z,49.00
2018-05-21T01:36:04.189Z,49.00
2018-05-21T01:36:41.512Z,49.00
2018-05-21T01:37:18.808Z,48.90
2018-05-21T01:37:56.951Z,49.00
2018-05-21T01:38:34.390Z,49.00
2018-05-21T01:39:12.447Z,49.00
2018-05-21T01:39:49.754Z,49.00
2018-05-21T01:40:27.992Z,49.00
2018-05-21T01:41:06.079Z,49.10
2018-05-21T01:41:43.335Z,49.00
2018-05-21T01:42:20.589Z,49.00
2018-05-21T01:42:57.938Z,48.90
2018-05-21T01:43:35.323Z,49.00
2018-05-21T01:44:12.535Z,49.00
2018-05-21T01:44:50.577Z,48.90
2018-05-21T01:45:27.875Z,48.90
2018-05-21T01:46:06.035Z,49.10
2018-05-21T01:46:43.266Z,49.10
2018-05-21T01:47:20.543Z,48.90
2018-05-21T01:47:58.749Z,49.10
2018-05-21T01:48:36.964Z,49.00
2018-05-21T01:49:14.397Z,48.90
2018-05-21T01:49:51.605Z,49.00
2018-05-21T01:50:28.878Z,49.00
2018-05-21T01:51:06.939Z,48.90
2018-05-21T01:51:45.161Z,49.00
2018-05-21T01:52:22.451Z,48.90
2018-05-21T01:52:59.782Z,48.90
2018-05-21T01:53:38.014Z,48.90
2018-05-21T01:54:16.134Z,49.00
2018-05-21T01:54:53.362Z,48.90
2018-05-21T01:55:30.723Z,49.00
2018-05-21T01:56:08.077Z,49.00
2018-05-21T01:56:46.427Z,49.00
2018-05-21T01:57:24.506Z,48.90
2018-05-21T01:58:02.700Z,48.90
2018-05-21T01:58:39.970Z,48.90
2018-05-21T01:59:18.311Z,49.00
2018-05-21T01:59:56.442Z,49.00
2018-05-21T02:00:34.388Z,49.20
2018-05-21T02:01:11.635Z,49.00
2018-05-21T02:01:49.020Z,49.00
2018-05-21T02:02:26.361Z,48.90
2018-05-21T02:03:03.737Z,48.90
2018-05-21T02:03:41.863Z,49.00
2018-05-21T02:04:20.064Z,49.00
2018-05-21T02:04:57.616Z,49.00
2018-05-21T02:05:35.113Z,48.90
2018-05-21T02:06:13.158Z,48.80
2018-05-21T02:06:51.301Z,48.90
2018-05-21T02:07:28.602Z,48.90
2018-05-21T02:08:06.790Z,49.10
2018-05-21T02:08:44.198Z,49.10
2018-05-21T02:09:22.258Z,49.70
2018-05-21T02:09:59.533Z,49.00
2018-05-21T02:10:37.542Z,49.00
2018-05-21T02:11:15.040Z,49.00
2018-05-21T02:11:53.099Z,49.10
2018-05-21T02:12:30.432Z,49.10
2018-05-21T02:13:08.595Z,49.00
2018-05-21T02:13:46.747Z,49.10
2018-05-21T02:14:24.120Z,49.10
2018-05-21T02:15:01.408Z,49.20
2018-05-21T02:15:38.636Z,49.00
2018-05-21T02:16:16.051Z,49.00
2018-05-21T02:16:53.516Z,49.00
2018-05-21T02:17:30.900Z,49.10
2018-05-21T02:18:09.082Z,49.60
2018-05-21T02:18:46.271Z,49.00
2018-05-21T02:19:23.617Z,48.80
2018-05-21T02:20:01.174Z,49.00
2018-05-21T02:20:39.443Z,48.90
2018-05-21T02:21:16.693Z,48.90
2018-05-21T02:21:54.167Z,48.90
2018-05-21T02:22:32.326Z,48.90
2018-05-21T02:23:10.382Z,48.90
2018-05-21T02:23:47.714Z,48.90
2018-05-21T02:24:25.004Z,48.90
2018-05-21T02:25:02.304Z,49.00
2018-05-21T02:25:40.402Z,48.90
2018-05-21T02:26:17.731Z,49.40
2018-05-21T02:26:55.759Z,49.10
2018-05-21T02:27:33.018Z,49.00
2018-05-21T02:28:10.440Z,49.20
2018-05-21T02:28:47.764Z,49.10
2018-05-21T02:29:25.307Z,49.00
2018-05-21T02:30:03.352Z,49.10
2018-05-21T02:30:40.943Z,49.10
2018-05-21T02:31:19.006Z,49.00
2018-05-21T02:31:56.481Z,49.00
2018-05-21T02:32:33.798Z,48.90
2018-05-21T02:33:11.122Z,48.80
2018-05-21T02:33:48.558Z,48.90
2018-05-21T02:34:26.637Z,49.00
2018-05-21T02:35:04.157Z,49.00
2018-05-21T02:35:42.318Z,49.10
2018-05-21T02:36:20.305Z,49.10
2018-05-21T02:36:57.621Z,49.00
2018-05-21T02:37:34.911Z,49.00
2018-05-21T02:38:13.042Z,49.00
2018-05-21T02:38:50.406Z,49.00
2018-05-21T02:39:28.617Z,49.10
2018-05-21T02:40:05.837Z,49.10
2018-05-21T02:40:43.130Z,49.10
2018-05-21T02:41:21.363Z,49.00
2018-05-21T02:41:58.626Z,49.00
2018-05-21T02:42:36.828Z,49.00
2018-05-21T02:43:14.083Z,49.00
2018-05-21T02:43:52.295Z,49.00
2018-05-21T02:44:29.682Z,49.00
2018-05-21T02:45:07.763Z,48.90
2018-05-21T02:45:45.224Z,48.90
2018-05-21T02:46:24.049Z,49.00
2018-05-21T02:47:01.415Z,48.90
2018-05-21T02:47:38.689Z,48.80
2018-05-21T02:48:15.939Z,48.80
2018-05-21T02:48:53.459Z,48.90
2018-05-21T02:49:30.785Z,49.00
2018-05-21T02:50:08.851Z,49.00
2018-05-21T02:50:46.918Z,48.90
2018-05-21T02:51:24.280Z,48.90
2018-05-21T02:52:01.720Z,49.00
2018-05-21T02:52:39.789Z,49.10
2018-05-21T02:53:17.149Z,49.10
2018-05-21T02:53:55.239Z,49.10
2018-05-21T02:54:33.347Z,49.10
2018-05-21T02:55:10.671Z,49.10
2018-05-21T02:55:48.112Z,49.20
2018-05-21T02:56:26.177Z,49.20
2018-05-21T02:57:03.494Z,49.20
2018-05-21T02:57:40.767Z,49.30
2018-05-21T02:58:18.820Z,49.10
2018-05-21T02:58:56.058Z,49.10
2018-05-21T02:59:34.285Z,49.10
2018-05-21T03:00:11.665Z,49.10
2018-05-21T03:00:48.979Z,49.10
2018-05-21T03:01:27.297Z,49.20
2018-05-21T03:02:04.580Z,49.20
2018-05-21T03:02:42.809Z,49.10
2018-05-21T03:03:20.064Z,49.10
2018-05-21T03:03:58.284Z,49.70
2018-05-21T03:04:35.679Z,49.10
2018-05-21T03:05:13.191Z,49.10
2018-05-21T03:05:50.567Z,49.10
2018-05-21T03:06:27.809Z,49.10
2018-05-21T03:07:05.242Z,49.00
2018-05-21T03:07:42.844Z,49.00
2018-05-21T03:08:20.252Z,49.00
2018-05-21T03:08:58.316Z,49.10
2018-05-21T03:09:35.705Z,49.00
2018-05-21T03:10:13.045Z,49.00
2018-05-21T03:10:50.399Z,49.00
2018-05-21T03:11:27.780Z,49.00
2018-05-21T03:12:05.022Z,49.00
2018-05-21T03:12:42.219Z,49.20
2018-05-21T03:13:20.458Z,49.10
2018-05-21T03:13:57.808Z,49.10
2018-05-21T03:14:36.059Z,49.00
2018-05-21T03:15:13.425Z,49.00
2018-05-21T03:15:51.455Z,49.10
2018-05-21T03:16:28.753Z,49.00
2018-05-21T03:17:06.866Z,49.20
2018-05-21T03:17:44.854Z,49.30
2018-05-21T03:18:22.889Z,49.10
2018-05-21T03:19:00.238Z,49.10
2018-05-21T03:19:37.493Z,49.00
2018-05-21T03:20:14.684Z,49.20
2018-05-21T03:20:52.126Z,49.20
2018-05-21T03:21:29.582Z,49.30
2018-05-21T03:22:06.858Z,49.20
2018-05-21T03:22:44.288Z,49.20
2018-05-21T03:23:22.762Z,49.20
2018-05-21T03:24:00.139Z,49.80
2018-05-21T03:24:37.587Z,49.20
2018-05-21T03:25:15.718Z,49.20
2018-05-21T03:25:53.062Z,49.10
2018-05-21T03:26:30.429Z,49.10
2018-05-21T03:27:07.917Z,49.10
2018-05-21T03:27:46.168Z,49.20
2018-05-21T03:28:24.359Z,49.10
2018-05-21T03:29:01.608Z,49.10
2018-05-21T03:29:39.823Z,49.10
2018-05-21T03:30:17.079Z,49.20
2018-05-21T03:30:55.391Z,49.10
2018-05-21T03:31:33.498Z,49.30
2018-05-21T03:32:11.483Z,49.20
2018-05-21T03:32:48.944Z,49.20
2018-05-21T03:33:26.383Z,49.30
2018-05-21T03:34:04.632Z,49.20
2018-05-21T03:34:41.886Z,49.10
2018-05-21T03:35:20.214Z,49.00
2018-05-21T03:35:58.306Z,49.20
2018-05-21T03:36:35.654Z,49.10
2018-05-21T03:37:13.891Z,49.20
2018-05-21T03:37:51.135Z,49.20
2018-05-21T03:38:29.343Z,49.30
2018-05-21T03:39:06.602Z,49.20
2018-05-21T03:39:43.886Z,49.20
2018-05-21T03:40:21.170Z,49.20
2018-05-21T03:40:58.767Z,49.20
2018-05-21T03:41:36.936Z,49.40
2018-05-21T03:42:14.310Z,49.40
2018-05-21T03:42:52.286Z,49.30
2018-05-21T03:43:29.596Z,49.30
2018-05-21T03:44:06.935Z,49.30
2018-05-21T03:44:44.303Z,49.20
2018-05-21T03:45:22.510Z,49.50
2018-05-21T03:45:59.805Z,49.20
2018-05-21T03:46:37.137Z,49.10
2018-05-21T03:47:14.621Z,49.20
2018-05-21T03:47:52.153Z,49.20
2018-05-21T03:48:29.575Z,49.20
2018-05-21T03:49:06.875Z,49.10
2018-05-21T03:49:44.228Z,49.20
2018-05-21T03:50:21.695Z,49.20
2018-05-21T03:50:59.978Z,49.30
2018-05-21T03:51:37.374Z,49.20
2018-05-21T03:52:15.410Z,49.30
2018-05-21T03:52:52.739Z,49.30
2018-05-21T03:53:30.039Z,49.20
2018-05-21T03:54:07.463Z,49.20
2018-05-21T03:54:45.428Z,49.20
2018-05-21T03:55:23.626Z,49.20
2018-05-21T03:56:00.993Z,49.20
2018-05-21T03:56:38.277Z,49.20
2018-05-21T03:57:15.623Z,49.20
2018-05-21T03:57:53.942Z,49.30
2018-05-21T03:58:31.942Z,49.30
2018-05-21T03:59:09.309Z,49.30
2018-05-21T03:59:47.309Z,49.20
2018-05-21T04:00:24.663Z,49.20
2018-05-21T04:01:02.813Z,49.20
2018-05-21T04:01:40.228Z,49.20
2018-05-21T04:02:18.449Z,49.30
2018-05-21T04:02:55.778Z,49.20
2018-05-21T04:03:33.931Z,49.20
2018-05-21T04:04:11.168Z,49.20
2018-05-21T04:04:49.423Z,49.20
2018-05-21T04:05:26.638Z,49.20
2018-05-21T04:06:04.184Z,49.20
2018-05-21T04:06:41.581Z,49.20
2018-05-21T04:07:19.153Z,49.10
2018-05-21T04:07:56.655Z,49.30
2018-05-21T04:08:34.041Z,49.10
2018-05-21T04:09:12.045Z,49.20
2018-05-21T04:09:49.304Z,49.20
2018-05-21T04:10:27.567Z,49.20
2018-05-21T04:11:05.741Z,49.20
2018-05-21T04:11:43.069Z,49.10
2018-05-21T04:12:21.306Z,49.20
2018-05-21T04:12:59.358Z,49.20
2018-05-21T04:13:37.385Z,49.30
2018-05-21T04:14:14.657Z,49.30
2018-05-21T04:14:52.036Z,49.20
2018-05-21T04:15:29.321Z,49.20
2018-05-21T04:16:07.424Z,49.20
2018-05-21T04:16:45.480Z,49.30
2018-05-21T04:17:23.573Z,49.20
2018-05-21T04:18:00.882Z,49.20
2018-05-21T04:18:38.309Z,49.20
2018-05-21T04:19:15.766Z,49.20
2018-05-21T04:19:53.264Z,49.20
2018-05-21T04:20:30.566Z,49.20
2018-05-21T04:21:07.945Z,49.20
2018-05-21T04:21:45.223Z,49.20
2018-05-21T04:22:23.329Z,49.30
2018-05-21T04:23:01.395Z,49.30
2018-05-21T04:23:39.620Z,49.20
2018-05-21T04:24:17.057Z,49.20
2018-05-21T04:24:55.105Z,49.20
2018-05-21T04:25:32.375Z,49.20
2018-05-21T04:26:09.854Z,49.30
2018-05-21T04:26:47.841Z,49.40
2018-05-21T04:27:25.192Z,49.40
2018-05-21T04:28:02.540Z,49.30
2018-05-21T04:28:39.935Z,49.40
2018-05-21T04:29:17.400Z,49.40
2018-05-21T04:29:54.878Z,49.30
2018-05-21T04:30:32.250Z,49.40
2018-05-21T04:31:10.548Z,49.40
2018-05-21T04:31:47.771Z,49.40
2018-05-21T04:32:25.015Z,49.50
2018-05-21T04:33:03.112Z,49.50
2018-05-21T04:33:40.460Z,49.50
2018-05-21T04:34:17.805Z,49.50
2018-05-21T04:34:55.267Z,49.50
2018-05-21T04:35:33.323Z,49.50
2018-05-21T04:36:11.529Z,49.50
2018-05-21T04:36:49.124Z,49.50
2018-05-21T04:37:27.085Z,49.50
2018-05-21T04:38:04.477Z,49.50
2018-05-21T04:38:42.693Z,49.50
2018-05-21T04:39:19.955Z,49.50
2018-05-21T04:39:57.418Z,49.60
2018-05-21T04:40:34.698Z,49.60
2018-05-21T04:41:12.813Z,49.60
2018-05-21T04:41:50.125Z,49.60
2018-05-21T04:42:27.513Z,49.50
2018-05-21T04:43:04.970Z,49.40
2018-05-21T04:43:42.271Z,49.40
2018-05-21T04:44:19.758Z,49.40
2018-05-21T04:44:57.855Z,49.50
2018-05-21T04:45:35.267Z,49.50
2018-05-21T04:46:13.338Z,49.50
2018-05-21T04:46:51.424Z,49.60
2018-05-21T04:47:28.663Z,49.50
2018-05-21T04:48:05.953Z,49.50
2018-05-21T04:48:44.166Z,49.50
2018-05-21T04:49:21.402Z,49.50
2018-05-21T04:49:58.586Z,49.40
2018-05-21T04:50:35.845Z,49.50
2018-05-21T04:51:14.098Z,49.40
2018-05-21T04:51:51.452Z,49.40
2018-05-21T04:52:28.719Z,49.40
2018-05-21T04:53:06.016Z,49.40
2018-05-21T04:53:44.209Z,49.40
2018-05-21T04:54:21.431Z,49.40
2018-05-21T04:54:59.665Z,49.40
2018-05-21T04:55:36.999Z,49.40
2018-05-21T04:56:15.171Z,49.50
2018-05-21T04:56:52.406Z,49.50
2018-05-21T04:57:29.695Z,49.40
2018-05-21T04:58:06.903Z,49.50
2018-05-21T04:58:44.173Z,50.00
2018-05-21T04:59:21.538Z,49.50
2018-05-21T04:59:58.940Z,49.50
2018-05-21T05:00:36.643Z,49.50
2018-05-21T05:01:14.845Z,49.50
2018-05-21T05:01:53.103Z,49.50
2018-05-21T05:02:30.506Z,49.50
2018-05-21T05:03:07.782Z,49.60
2018-05-21T05:03:45.826Z,49.60
2018-05-21T05:04:23.055Z,49.70
2018-05-21T05:05:00.352Z,49.50
2018-05-21T05:05:37.685Z,49.50
2018-05-21T05:06:14.946Z,49.50
2018-05-21T05:06:53.011Z,49.60
2018-05-21T05:07:31.224Z,49.60
2018-05-21T05:08:08.453Z,49.50
2018-05-21T05:08:45.902Z,49.60
2018-05-21T05:09:23.298Z,49.60
2018-05-21T05:10:01.514Z,49.50
2018-05-21T05:10:39.621Z,49.60
2018-05-21T05:11:17.706Z,49.50
2018-05-21T05:11:55.115Z,49.50
2018-05-21T05:12:32.394Z,50.20
2018-05-21T05:13:10.466Z,49.70
2018-05-21T05:13:47.801Z,49.60
2018-05-21T05:14:25.141Z,49.60
2018-05-21T05:15:03.099Z,49.60
2018-05-21T05:15:40.504Z,49.60
2018-05-21T05:16:18.579Z,49.70
2018-05-21T05:16:56.895Z,49.70
2018-05-21T05:17:34.229Z,49.60
2018-05-21T05:18:12.227Z,49.60
2018-05-21T05:18:49.550Z,49.60
2018-05-21T05:19:26.832Z,49.60
2018-05-21T05:20:04.087Z,49.50
2018-05-21T05:20:41.566Z,49.60
2018-05-21T05:21:19.651Z,49.70
2018-05-21T05:21:56.949Z,49.70
2018-05-21T05:22:34.378Z,49.60
2018-05-21T05:23:12.477Z,49.60
2018-05-21T05:23:51.380Z,49.60
2018-05-21T05:24:28.719Z,49.60
2018-05-21T05:25:06.191Z,49.50
2018-05-21T05:25:43.467Z,49.60
2018-05-21T05:26:21.606Z,49.50
2018-05-21T05:26:58.985Z,49.50
2018-05-21T05:27:37.088Z,49.70
2018-05-21T05:28:15.277Z,49.70
2018-05-21T05:28:52.703Z,49.60
2018-05-21T05:29:30.891Z,49.60
2018-05-21T05:30:08.513Z,49.60
2018-05-21T05:30:46.720Z,49.50
2018-05-21T05:31:24.706Z,49.60
2018-05-21T05:32:02.863Z,49.50
2018-05-21T05:32:40.187Z,49.50
2018-05-21T05:33:18.293Z,49.50
2018-05-21T05:33:55.533Z,49.60
2018-05-21T05:34:32.817Z,49.70
2018-05-21T05:35:11.043Z,49.60
2018-05-21T05:35:48.427Z,49.60
2018-05-21T05:36:26.502Z,49.60
2018-05-21T05:37:03.888Z,49.60
2018-05-21T05:37:41.168Z,49.70
2018-05-21T05:38:19.260Z,49.60
2018-05-21T05:38:56.595Z,49.60
2018-05-21T05:39:34.817Z,49.70
2018-05-21T05:40:12.030Z,49.70
2018-05-21T05:40:50.188Z,49.70
2018-05-21T05:41:27.529Z,49.60
2018-05-21T05:42:05.800Z,49.70
2018-05-21T05:42:44.177Z,49.70
2018-05-21T05:43:22.241Z,49.60
2018-05-21T05:43:59.589Z,49.60
2018-05-21T05:44:37.825Z,49.70
2018-05-21T05:45:15.158Z,49.60
2018-05-21T05:45:53.181Z,49.60
2018-05-21T05:46:30.513Z,49.60
2018-05-21T05:47:07.859Z,49.50
2018-05-21T05:47:45.919Z,49.50
2018-05-21T05:48:23.285Z,49.50
2018-05-21T05:49:00.703Z,49.50
2018-05-21T05:49:38.875Z,49.60
2018-05-21T05:50:16.998Z,49.60
2018-05-21T05:50:54.324Z,49.60
2018-05-21T05:51:32.437Z,49.60
2018-05-21T05:52:09.693Z,49.60
2018-05-21T05:52:47.109Z,49.60
2018-05-21T05:53:24.361Z,49.60
2018-05-21T05:54:02.662Z,49.50
2018-05-21T05:54:40.793Z,49.50
2018-05-21T05:55:19.045Z,49.60
2018-05-21T05:55:57.247Z,49.60
2018-05-21T05:56:34.574Z,49.60
2018-05-21T05:57:11.931Z,49.60
2018-05-21T05:57:50.121Z,49.70
2018-05-21T05:58:28.206Z,49.60
2018-05-21T05:59:05.530Z,49.60
2018-05-21T05:59:42.770Z,49.70
2018-05-21T06:00:19.975Z,49.70
2018-05-21T06:00:57.390Z,49.70
2018-05-21T06:01:34.679Z,49.70
2018-05-21T06:02:12.654Z,49.70
2018-05-21T06:02:50.161Z,49.70
2018-05-21T06:03:27.661Z,49.60
2018-05-21T06:04:05.920Z,49.60
2018-05-21T06:04:44.202Z,49.80
2018-05-21T06:05:21.667Z,49.60
2018-05-21T06:05:59.139Z,49.70
2018-05-21T06:06:37.373Z,49.60
2018-05-21T06:07:14.761Z,49.60
2018-05-21T06:07:52.147Z,49.10
2018-05-21T06:08:29.548Z,49.60
2018-05-21T06:09:06.949Z,49.60
2018-05-21T06:09:44.203Z,49.70
2018-05-21T06:10:21.567Z,49.70
2018-05-21T06:10:58.971Z,49.80
2018-05-21T06:11:36.303Z,49.80
2018-05-21T06:12:14.567Z,49.70
2018-05-21T06:12:51.781Z,49.70
2018-05-21T06:13:29.236Z,49.70
2018-05-21T06:14:07.310Z,49.70
2018-05-21T06:14:45.424Z,49.70
2018-05-21T06:15:22.659Z,49.70
2018-05-21T06:15:59.899Z,49.70
2018-05-21T06:16:38.043Z,49.70
2018-05-21T06:17:15.394Z,49.70
2018-05-21T06:17:52.720Z,49.70
2018-05-21T06:18:30.096Z,49.10
2018-05-21T06:19:07.526Z,49.60
2018-05-21T06:19:44.986Z,49.60
2018-05-21T06:20:22.173Z,49.60
2018-05-21T06:20:59.628Z,49.60
2018-05-21T06:21:37.106Z,49.60
2018-05-21T06:22:14.533Z,49.70
2018-05-21T06:22:52.648Z,49.80
2018-05-21T06:23:30.088Z,49.70
2018-05-21T06:24:07.550Z,49.70
2018-05-21T06:24:44.734Z,49.70
2018-05-21T06:25:22.187Z,49.70
2018-05-21T06:25:59.700Z,49.70
2018-05-21T06:26:37.377Z,49.70
2018-05-21T06:27:15.526Z,49.80
2018-05-21T06:27:52.865Z,49.80
2018-05-21T06:28:30.171Z,49.70
2018-05-21T06:29:07.399Z,49.70
2018-05-21T06:29:45.386Z,49.70
2018-05-21T06:30:22.764Z,49.60
2018-05-21T06:31:00.186Z,49.80
2018-05-21T06:31:37.603Z,49.70
2018-05-21T06:32:15.831Z,49.70
2018-05-21T06:32:53.459Z,49.80
2018-05-21T06:33:31.514Z,49.70
2018-05-21T06:34:08.809Z,49.70
2018-05-21T06:34:47.086Z,49.80
2018-05-21T06:35:25.091Z,49.80
2018-05-21T06:36:02.682Z,49.80
2018-05-21T06:36:40.903Z,49.80
2018-05-21T06:37:19.326Z,49.80
2018-05-21T06:37:56.754Z,49.70
2018-05-21T06:38:34.202Z,49.80
2018-05-21T06:39:12.300Z,49.90
2018-05-21T06:39:50.317Z,49.80
2018-05-21T06:40:28.462Z,49.80
2018-05-21T06:41:06.668Z,49.80
2018-05-21T06:41:44.871Z,49.80
2018-05-21T06:42:22.148Z,49.80
2018-05-21T06:42:59.529Z,49.80
2018-05-21T06:43:36.827Z,49.70
2018-05-21T06:44:14.115Z,49.70
2018-05-21T06:44:52.187Z,49.70
2018-05-21T06:45:29.514Z,49.70
2018-05-21T06:46:06.845Z,49.70
2018-05-21T06:46:44.153Z,49.70
2018-05-21T06:47:21.665Z,49.70
2018-05-21T06:47:59.128Z,49.70
2018-05-21T06:48:36.566Z,49.70
2018-05-21T06:49:13.777Z,49.70
2018-05-21T06:49:51.245Z,49.70
2018-05-21T06:50:28.637Z,49.70
2018-05-21T06:51:05.942Z,49.70
2018-05-21T06:51:43.268Z,49.70
2018-05-21T06:52:21.281Z,50.40
2018-05-21T06:52:58.635Z,49.70
2018-05-21T06:53:36.123Z,49.70
2018-05-21T06:54:14.354Z,49.80
2018-05-21T06:54:51.578Z,49.70
2018-05-21T06:55:28.911Z,49.80
2018-05-21T06:56:06.197Z,49.80
2018-05-21T06:56:44.272Z,49.80
2018-05-21T06:57:21.520Z,49.80
2018-05-21T06:57:58.861Z,49.90
2018-05-21T06:58:37.130Z,49.90
2018-05-21T06:59:15.213Z,49.90
2018-05-21T06:59:52.615Z,49.80
2018-05-21T07:00:31.621Z,49.90
2018-05-21T07:01:09.054Z,49.90
2018-05-21T07:01:46.330Z,49.80
2018-05-21T07:02:24.535Z,49.90
2018-05-21T07:03:02.721Z,49.90
2018-05-21T07:03:39.973Z,49.90
2018-05-21T07:04:17.447Z,49.90
2018-05-21T07:04:55.587Z,49.90
2018-05-21T07:05:32.964Z,49.90
2018-05-21T07:06:11.052Z,49.80
2018-05-21T07:06:48.278Z,49.80
2018-05-21T07:07:26.727Z,49.80
2018-05-21T07:08:04.009Z,49.80
2018-05-21T07:08:42.430Z,49.90
2018-05-21T07:09:19.868Z,49.80
2018-05-21T07:09:57.324Z,49.80
2018-05-21T07:10:34.829Z,49.90
2018-05-21T07:11:12.237Z,49.90
2018-05-21T07:11:50.410Z,49.90
2018-05-21T07:12:27.702Z,49.90
2018-05-21T07:13:05.095Z,49.90
2018-05-21T07:13:42.411Z,49.80
2018-05-21T07:14:20.639Z,49.80
2018-05-21T07:14:58.726Z,49.70
2018-05-21T07:15:36.042Z,49.70
2018-05-21T07:16:13.566Z,49.70
2018-05-21T07:16:51.789Z,49.60
2018-05-21T07:17:29.195Z,49.60
2018-05-21T07:18:06.615Z,49.50
2018-05-21T07:18:44.030Z,49.60
2018-05-21T07:19:22.110Z,49.40
2018-05-21T07:19:59.457Z,49.40
2018-05-21T07:20:36.870Z,49.40
2018-05-21T07:21:14.956Z,49.30
2018-05-21T07:21:52.142Z,49.20
2018-05-21T07:22:30.350Z,49.20
2018-05-21T07:23:07.693Z,49.20
2018-05-21T07:23:45.795Z,49.10
2018-05-21T07:24:23.084Z,49.10
2018-05-21T07:25:01.377Z,49.10
2018-05-21T07:25:39.770Z,49.10
2018-05-21T07:26:17.173Z,49.00
2018-05-21T07:26:54.596Z,49.10
2018-05-21T07:27:32.020Z,49.00
2018-05-21T07:28:09.342Z,49.00
2018-05-21T07:28:46.742Z,48.90
2018-05-21T07:29:24.138Z,49.00
2018-05-21T07:30:02.216Z,48.80
2018-05-21T07:30:39.579Z,48.80
2018-05-21T07:31:17.790Z,48.70
2018-05-21T07:31:55.051Z,48.70
2018-05-21T07:32:33.248Z,48.50
2018-05-21T07:33:10.678Z,48.50
2018-05-21T07:33:49.125Z,48.50
2018-05-21T07:34:26.593Z,48.50
2018-05-21T07:35:04.055Z,48.50
2018-05-21T07:35:42.298Z,48.50
2018-05-21T07:36:20.370Z,48.70
2018-05-21T07:36:57.840Z,48.50
2018-05-21T07:37:35.283Z,48.50
2018-05-21T07:38:12.608Z,48.50
2018-05-21T07:38:50.830Z,48.50
2018-05-21T07:39:28.468Z,48.50
2018-05-21T07:40:05.896Z,48.50
2018-05-21T07:40:43.242Z,48.40
2018-05-21T07:41:20.607Z,48.40
2018-05-21T07:41:57.922Z,48.50
2018-05-21T07:42:35.177Z,48.50
2018-05-21T07:43:13.518Z,48.50
2018-05-21T07:43:51.768Z,48.50
2018-05-21T07:44:29.901Z,48.50
2018-05-21T07:45:07.271Z,48.50
2018-05-21T07:45:45.334Z,48.60
2018-05-21T07:46:22.698Z,48.50
2018-05-21T07:47:00.118Z,49.20
2018-05-21T07:47:38.274Z,48.60
2018-05-21T07:48:16.719Z,48.60
2018-05-21T07:48:54.127Z,48.60
2018-05-21T07:49:31.431Z,48.70
2018-05-21T07:50:09.710Z,48.70
2018-05-21T07:50:47.714Z,48.80
2018-05-21T07:51:25.775Z,48.70
2018-05-21T07:52:03.231Z,48.70
2018-05-21T07:52:40.699Z,48.60
2018-05-21T07:53:18.106Z,48.60
2018-05-21T07:53:56.226Z,48.80
2018-05-21T07:54:33.595Z,48.70
2018-05-21T07:55:11.075Z,48.70
2018-05-21T07:55:48.607Z,48.80
2018-05-21T07:56:26.568Z,48.80
2018-05-21T07:57:03.802Z,48.80
2018-05-21T07:57:41.287Z,48.80
2018-05-21T07:58:18.636Z,48.90
2018-05-21T07:58:56.879Z,49.00
2018-05-21T07:59:34.282Z,48.90
2018-05-21T08:00:12.354Z,48.90
2018-05-21T08:00:50.373Z,48.90
2018-05-21T08:01:28.444Z,48.90
2018-05-21T08:02:05.753Z,48.90
2018-05-21T08:02:43.119Z,49.00
2018-05-21T08:03:21.216Z,48.90
2018-05-21T08:03:58.614Z,48.90
2018-05-21T08:04:35.894Z,49.00
2018-05-21T08:05:14.191Z,49.00